createdAt,value
2018-10-06T00:01:42.370Z,0.00
2018-10-06T00:02:42.290Z,0.00
2018-10-06T00:04:35.049Z,0.00
2018-10-06T00:05:34.978Z,0.00
2018-10-06T00:07:27.748Z,0.00
2018-10-06T00:08:27.672Z,0.00
2018-10-06T00:10:20.445Z,0.00
2018-10-06T00:11:20.381Z,0.00
2018-10-06T00:13:13.164Z,0.00
2018-10-06T00:14:13.073Z,0.00
2018-10-06T00:16:05.839Z,0.00
2018-10-06T00:17:05.763Z,0.00
2018-10-06T00:18:58.516Z,0.00
2018-10-06T00:19:58.447Z,0.00
2018-10-06T00:21:51.239Z,0.00
2018-10-06T00:22:51.170Z,0.00
2018-10-06T00:24:43.938Z,0.00
2018-10-06T00:25:43.863Z,0.00
2018-10-06T00:27:36.658Z,0.00
2018-10-06T00:28:36.565Z,0.00
2018-10-06T00:30:29.334Z,0.00
2018-10-06T00:31:29.266Z,0.00
2018-10-06T00:33:22.042Z,0.00
2018-10-06T00:34:21.970Z,0.00
2018-10-06T00:36:14.746Z,0.00
2018-10-06T00:37:14.669Z,0.00
2018-10-06T00:39:07.431Z,0.00
2018-10-06T00:40:07.382Z,0.00
2018-10-06T00:42:00.129Z,0.00
2018-10-06T00:43:00.053Z,0.00
2018-10-06T00:44:52.840Z,0.00
2018-10-06T00:45:52.756Z,0.00
2018-10-06T00:47:45.520Z,0.00
2018-10-06T00:48:45.446Z,0.00
2018-10-06T00:50:38.224Z,0.00
2018-10-06T00:51:38.153Z,0.00
2018-10-06T00:53:30.922Z,0.00
2018-10-06T00:54:30.846Z,0.00
2018-10-06T00:56:23.625Z,0.00
2018-10-06T00:57:23.551Z,0.00
2018-10-06T00:59:16.312Z,0.00
2018-10-06T01:00:16.240Z,0.00
2018-10-06T01:02:09.027Z,0.00
2018-10-06T01:03:08.946Z,0.00
2018-10-06T01:05:01.714Z,0.00
2018-10-06T01:06:01.651Z,0.00
2018-10-06T01:07:54.419Z,0.00
2018-10-06T01:08:54.340Z,0.00
2018-10-06T01:10:47.104Z,0.00
2018-10-06T01:11:47.038Z,0.00
2018-10-06T01:13:39.804Z,0.00
2018-10-06T01:14:39.729Z,0.00
2018-10-06T01:16:32.506Z,0.00
2018-10-06T01:17:32.433Z,0.00
2018-10-06T01:19:25.225Z,0.00
2018-10-06T01:20:25.135Z,0.00
2018-10-06T01:22:17.912Z,0.00
2018-10-06T01:23:17.836Z,0.00
2018-10-06T01:25:10.595Z,0.00
2018-10-06T01:26:10.530Z,0.00
2018-10-06T01:28:03.297Z,0.00
2018-10-06T01:29:03.223Z,0.00
2018-10-06T01:30:55.975Z,0.00
2018-10-06T01:31:55.913Z,0.00
2018-10-06T01:33:48.699Z,0.00
2018-10-06T01:34:48.622Z,0.00
2018-10-06T01:36:41.402Z,0.00
2018-10-06T01:37:41.307Z,0.00
2018-10-06T01:39:34.081Z,0.00
2018-10-06T01:40:34.012Z,0.00
2018-10-06T01:42:26.795Z,0.00
2018-10-06T01:43:26.746Z,0.00
2018-10-06T01:45:19.477Z,0.00
2018-10-06T01:46:19.411Z,0.00
2018-10-06T01:48:12.193Z,0.00
2018-10-06T01:49:12.109Z,0.00
2018-10-06T01:51:04.927Z,0.00
2018-10-06T01:52:04.806Z,0.00
2018-10-06T01:53:57.585Z,0.00
2018-10-06T01:54:57.507Z,0.00
2018-10-06T01:56:50.269Z,0.00
2018-10-06T01:57:50.199Z,0.00
2018-10-06T01:59:42.960Z,0.00
2018-10-06T02:00:42.890Z,0.00
2018-10-06T02:02:35.647Z,0.00
2018-10-06T02:03:35.576Z,0.00
2018-10-06T02:05:28.324Z,0.00
2018-10-06T02:06:28.262Z,0.00
2018-10-06T02:08:21.029Z,0.00
2018-10-06T02:09:20.956Z,0.00
2018-10-06T02:11:13.706Z,0.00
2018-10-06T02:12:13.639Z,0.00
2018-10-06T02:14:06.401Z,0.00
2018-10-06T02:15:06.325Z,0.00
2018-10-06T02:16:59.079Z,0.00
2018-10-06T02:17:59.013Z,0.00
2018-10-06T02:19:51.783Z,0.00
2018-10-06T02:20:51.705Z,0.00
2018-10-06T02:22:44.470Z,0.00
2018-10-06T02:23:44.392Z,0.00
2018-10-06T02:25:37.145Z,0.00
2018-10-06T02:26:37.079Z,0.00
2018-10-06T02:28:29.858Z,0.00
2018-10-06T02:29:29.778Z,0.00
2018-10-06T02:31:22.538Z,0.00
2018-10-06T02:32:22.477Z,0.00
2018-10-06T02:34:15.255Z,0.00
2018-10-06T02:35:15.179Z,0.00
2018-10-06T02:37:07.939Z,0.00
2018-10-06T02:38:07.867Z,0.00
2018-10-06T02:40:00.668Z,0.00
2018-10-06T02:41:00.576Z,0.00
2018-10-06T02:42:53.344Z,0.00
2018-10-06T02:43:53.266Z,0.00
2018-10-06T02:45:46.034Z,0.00
2018-10-06T02:46:45.968Z,0.00
2018-10-06T02:48:38.739Z,0.00
2018-10-06T02:49:38.661Z,0.00
2018-10-06T02:51:31.423Z,0.00
2018-10-06T02:52:31.355Z,0.00
2018-10-06T02:54:24.121Z,0.00
2018-10-06T02:55:24.045Z,0.00
2018-10-06T02:57:16.806Z,0.00
2018-10-06T02:58:16.742Z,0.00
2018-10-06T03:00:09.518Z,0.00
2018-10-06T03:01:09.444Z,0.00
2018-10-06T03:03:03.049Z,0.00
2018-10-06T03:04:02.972Z,0.00
2018-10-06T03:05:55.740Z,0.00
2018-10-06T03:06:55.674Z,0.00
2018-10-06T03:08:48.442Z,0.00
2018-10-06T03:09:48.361Z,0.00
2018-10-06T03:11:41.120Z,0.00
2018-10-06T03:12:41.053Z,0.00
2018-10-06T03:14:33.832Z,0.00
2018-10-06T03:15:33.757Z,0.00
2018-10-06T03:17:26.514Z,0.00
2018-10-06T03:18:26.456Z,0.00
2018-10-06T03:20:19.230Z,0.00
2018-10-06T03:21:19.152Z,0.00
2018-10-06T03:23:11.921Z,0.00
2018-10-06T03:24:11.846Z,0.00
2018-10-06T03:26:04.618Z,0.00
2018-10-06T03:27:04.552Z,0.00
2018-10-06T03:28:57.321Z,0.00
2018-10-06T03:29:57.251Z,0.00
2018-10-06T03:31:50.014Z,0.00
2018-10-06T03:32:49.952Z,0.00
2018-10-06T03:34:42.753Z,0.00
2018-10-06T03:35:42.639Z,0.00
2018-10-06T03:37:35.414Z,0.00
2018-10-06T03:38:35.350Z,0.00
2018-10-06T03:40:28.115Z,0.00
2018-10-06T03:41:28.036Z,0.00
2018-10-06T03:43:20.819Z,0.00
2018-10-06T03:44:20.740Z,0.00
2018-10-06T03:46:13.506Z,0.00
2018-10-06T03:47:13.444Z,0.00
2018-10-06T03:49:06.214Z,0.00
2018-10-06T03:50:06.137Z,0.00
2018-10-06T03:51:58.893Z,0.00
2018-10-06T03:52:58.827Z,0.00
2018-10-06T03:54:51.591Z,0.00
2018-10-06T03:55:51.518Z,0.00
2018-10-06T03:57:44.294Z,0.00
2018-10-06T03:58:44.227Z,0.00
2018-10-06T04:00:36.989Z,0.00
2018-10-06T04:01:36.920Z,0.00
2018-10-06T04:03:29.689Z,0.00
2018-10-06T04:04:29.621Z,0.00
2018-10-06T04:06:22.396Z,0.00
2018-10-06T04:07:22.314Z,0.00
2018-10-06T04:09:15.095Z,0.00
2018-10-06T04:10:15.015Z,0.00
2018-10-06T04:12:07.771Z,0.00
2018-10-06T04:13:07.701Z,0.00
2018-10-06T04:15:00.475Z,0.00
2018-10-06T04:16:00.403Z,0.00
2018-10-06T04:17:53.178Z,0.00
2018-10-06T04:18:53.113Z,0.00
2018-10-06T04:20:45.891Z,0.00
2018-10-06T04:21:45.808Z,0.00
2018-10-06T04:23:38.588Z,0.00
2018-10-06T04:24:38.526Z,0.00
2018-10-06T04:26:31.287Z,0.00
2018-10-06T04:27:31.209Z,0.00
2018-10-06T04:29:23.971Z,0.00
2018-10-06T04:30:23.895Z,0.00
2018-10-06T04:32:16.674Z,0.00
2018-10-06T04:33:16.605Z,0.00
2018-10-06T04:35:09.380Z,0.00
2018-10-06T04:36:09.301Z,0.00
2018-10-06T04:38:02.071Z,0.00
2018-10-06T04:39:01.997Z,0.00
2018-10-06T04:40:54.778Z,0.00
2018-10-06T04:41:54.702Z,0.00
2018-10-06T04:43:47.457Z,0.00
2018-10-06T04:44:47.395Z,0.00
2018-10-06T04:46:40.179Z,0.00
2018-10-06T04:47:40.099Z,0.00
2018-10-06T04:49:32.860Z,0.00
2018-10-06T04:50:32.793Z,0.00
2018-10-06T04:52:25.584Z,0.00
2018-10-06T04:53:25.489Z,0.00
2018-10-06T04:55:18.249Z,0.00
2018-10-06T04:56:18.179Z,0.00
2018-10-06T04:58:10.971Z,0.00
2018-10-06T04:59:10.897Z,0.00
2018-10-06T05:01:03.670Z,0.00
2018-10-06T05:02:03.598Z,0.00
2018-10-06T05:03:56.352Z,0.00
2018-10-06T05:04:56.282Z,0.00
2018-10-06T05:06:49.049Z,0.00
2018-10-06T05:07:48.968Z,0.00
2018-10-06T05:09:41.747Z,0.00
2018-10-06T05:10:41.684Z,5.63
2018-10-06T05:12:34.449Z,5.63
2018-10-06T05:13:34.368Z,5.63
2018-10-06T05:15:27.141Z,5.63
2018-10-06T05:16:27.074Z,5.63
2018-10-06T05:18:19.841Z,5.63
2018-10-06T05:19:19.767Z,11.25
2018-10-06T05:21:12.547Z,11.25
2018-10-06T05:22:12.473Z,11.25
2018-10-06T05:24:05.241Z,11.25
2018-10-06T05:25:05.167Z,16.88
2018-10-06T05:26:57.967Z,16.88
2018-10-06T05:27:57.876Z,16.88
2018-10-06T05:29:50.621Z,16.88
2018-10-06T05:30:50.555Z,22.50
2018-10-06T05:32:43.333Z,22.50
2018-10-06T05:33:43.255Z,22.50
2018-10-06T05:35:36.028Z,28.13
2018-10-06T05:36:35.953Z,28.13
2018-10-06T05:38:28.733Z,28.13
2018-10-06T05:39:28.649Z,33.75
2018-10-06T05:41:21.400Z,39.38
2018-10-06T05:42:21.342Z,45.00
2018-10-06T05:44:14.108Z,61.88
2018-10-06T05:45:14.027Z,73.13
2018-10-06T05:47:06.821Z,101.25
2018-10-06T05:48:06.745Z,112.50
2018-10-06T05:49:59.507Z,118.13
2018-10-06T05:50:59.428Z,123.75
2018-10-06T05:52:52.223Z,123.75
2018-10-06T05:53:52.147Z,112.50
2018-10-06T05:55:44.900Z,95.63
2018-10-06T05:56:44.833Z,78.75
2018-10-06T05:58:37.619Z,73.13
2018-10-06T05:59:37.541Z,67.50
2018-10-06T06:01:30.290Z,67.50
2018-10-06T06:02:30.230Z,67.50
2018-10-06T06:04:23.006Z,73.13
2018-10-06T06:05:22.934Z,73.13
2018-10-06T06:07:15.691Z,78.75
2018-10-06T06:08:15.624Z,78.75
2018-10-06T06:10:08.402Z,78.75
2018-10-06T06:11:08.334Z,84.38
2018-10-06T06:13:01.102Z,84.38
2018-10-06T06:14:01.015Z,90.00
2018-10-06T06:15:53.796Z,95.63
2018-10-06T06:16:53.723Z,101.25
2018-10-06T06:18:46.503Z,118.13
2018-10-06T06:19:46.416Z,123.75
2018-10-06T06:21:39.187Z,140.63
2018-10-06T06:22:39.117Z,151.88
2018-10-06T06:24:31.901Z,180.00
2018-10-06T06:25:31.824Z,202.50
2018-10-06T06:27:24.586Z,247.50
2018-10-06T06:28:24.510Z,275.63
2018-10-06T06:30:17.295Z,348.75
2018-10-06T06:31:17.225Z,399.38
2018-10-06T06:33:10.002Z,511.88
2018-10-06T06:34:09.914Z,562.50
2018-10-06T06:36:02.698Z,635.63
2018-10-06T06:37:02.641Z,641.25
2018-10-06T06:38:55.409Z,613.13
2018-10-06T06:39:55.318Z,596.25
2018-10-06T06:41:48.073Z,556.88
2018-10-06T06:42:48.007Z,523.13
2018-10-06T06:44:40.833Z,450.00
2018-10-06T06:45:40.703Z,405.00
2018-10-06T06:47:33.463Z,393.75
2018-10-06T06:48:33.401Z,382.50
2018-10-06T06:50:26.294Z,365.63
2018-10-06T06:51:26.117Z,360.00
2018-10-06T06:53:18.939Z,343.13
2018-10-06T06:54:18.873Z,337.50
2018-10-06T06:56:11.654Z,326.25
2018-10-06T06:57:11.565Z,309.38
2018-10-06T06:59:04.346Z,292.50
2018-10-06T07:00:04.278Z,298.13
2018-10-06T07:01:57.046Z,292.50
2018-10-06T07:02:56.981Z,286.88
2018-10-06T07:04:49.782Z,258.75
2018-10-06T07:05:49.701Z,253.13
2018-10-06T07:07:42.460Z,225.00
2018-10-06T07:08:42.396Z,213.75
2018-10-06T07:10:35.189Z,208.13
2018-10-06T07:11:35.101Z,208.13
2018-10-06T07:13:27.863Z,202.50
2018-10-06T07:14:27.810Z,196.88
2018-10-06T07:16:20.587Z,202.50
2018-10-06T07:17:20.501Z,196.88
2018-10-06T07:19:13.292Z,208.13
2018-10-06T07:20:13.203Z,191.25
2018-10-06T07:22:05.972Z,202.50
2018-10-06T07:23:05.918Z,208.13
2018-10-06T07:24:58.690Z,225.00
2018-10-06T07:25:58.619Z,230.63
2018-10-06T07:27:51.383Z,264.38
2018-10-06T07:28:51.320Z,320.63
2018-10-06T07:30:44.090Z,371.25
2018-10-06T07:31:44.006Z,405.00
2018-10-06T07:33:36.767Z,528.75
2018-10-06T07:34:36.712Z,708.75
2018-10-06T07:36:29.498Z,765.00
2018-10-06T07:37:29.406Z,810.00
2018-10-06T07:39:22.177Z,939.38
2018-10-06T07:40:22.099Z,1012.50
2018-10-06T07:42:14.874Z,1068.75
2018-10-06T07:43:14.845Z,1063.13
2018-10-06T07:45:07.588Z,1102.50
2018-10-06T07:46:07.515Z,1046.25
2018-10-06T07:48:00.308Z,1130.63
2018-10-06T07:49:00.233Z,1125.00
2018-10-06T07:50:53.054Z,1147.50
2018-10-06T07:51:52.939Z,1158.75
2018-10-06T07:53:45.750Z,1153.13
2018-10-06T07:54:45.651Z,1153.13
2018-10-06T07:56:38.504Z,1136.25
2018-10-06T07:57:38.356Z,1141.88
2018-10-06T07:59:31.150Z,1158.75
2018-10-06T08:00:31.105Z,1153.13
2018-10-06T08:02:23.923Z,984.38
2018-10-06T08:03:23.813Z,911.25
2018-10-06T08:05:16.595Z,1085.63
2018-10-06T08:06:16.601Z,1265.63
2018-10-06T08:08:09.305Z,1220.63
2018-10-06T08:09:09.245Z,933.75
2018-10-06T08:11:02.036Z,1378.13
2018-10-06T08:12:01.973Z,1372.50
2018-10-06T08:13:54.741Z,1080.00
2018-10-06T08:14:54.675Z,1766.25
2018-10-06T08:16:47.480Z,1636.88
2018-10-06T08:17:47.414Z,1625.63
2018-10-06T08:19:40.192Z,1400.63
2018-10-06T08:20:40.127Z,1316.25
2018-10-06T08:22:32.906Z,967.50
2018-10-06T08:23:32.844Z,804.38
2018-10-06T08:25:25.666Z,967.50
2018-10-06T08:26:25.599Z,967.50
2018-10-06T08:28:18.362Z,1012.50
2018-10-06T08:29:18.301Z,1035.00
2018-10-06T08:31:11.091Z,978.75
2018-10-06T08:32:11.023Z,978.75
2018-10-06T08:34:03.875Z,911.25
2018-10-06T08:35:03.802Z,900.00
2018-10-06T08:36:56.593Z,911.25
2018-10-06T08:37:56.531Z,866.25
2018-10-06T08:39:49.333Z,911.25
2018-10-06T08:40:49.265Z,900.00
2018-10-06T08:42:42.055Z,877.50
2018-10-06T08:43:41.979Z,967.50
2018-10-06T08:45:34.763Z,703.13
2018-10-06T08:46:34.685Z,686.25
2018-10-06T08:48:27.494Z,978.75
2018-10-06T08:49:27.440Z,1001.25
2018-10-06T08:51:20.265Z,990.00
2018-10-06T08:52:20.171Z,1018.13
2018-10-06T08:54:12.959Z,725.63
2018-10-06T08:55:12.896Z,978.75
2018-10-06T08:57:05.698Z,810.00
2018-10-06T08:58:05.644Z,871.88
2018-10-06T08:59:58.414Z,787.50
2018-10-06T09:00:58.353Z,826.88
2018-10-06T09:02:51.233Z,770.63
2018-10-06T09:03:51.105Z,568.13
2018-10-06T09:05:43.889Z,894.38
2018-10-06T09:06:43.828Z,843.75
2018-10-06T09:08:36.626Z,888.75
2018-10-06T09:09:36.561Z,866.25
2018-10-06T09:11:29.354Z,894.38
2018-10-06T09:12:29.299Z,810.00
2018-10-06T09:14:22.070Z,832.50
2018-10-06T09:15:22.005Z,826.88
2018-10-06T09:17:14.814Z,826.88
2018-10-06T09:18:14.735Z,798.75
2018-10-06T09:20:07.631Z,883.13
2018-10-06T09:21:07.522Z,894.38
2018-10-06T09:23:00.374Z,905.63
2018-10-06T09:24:00.262Z,888.75
2018-10-06T09:25:53.074Z,838.13
2018-10-06T09:26:53.425Z,855.00
2018-10-06T09:28:45.800Z,883.13
2018-10-06T09:29:45.730Z,871.88
2018-10-06T09:31:38.533Z,860.63
2018-10-06T09:32:38.447Z,860.63
2018-10-06T09:34:31.251Z,765.00
2018-10-06T09:35:31.208Z,787.50
2018-10-06T09:37:23.973Z,810.00
2018-10-06T09:38:23.902Z,765.00
2018-10-06T09:40:16.689Z,770.63
2018-10-06T09:41:16.629Z,753.75
2018-10-06T09:43:09.447Z,770.63
2018-10-06T09:44:09.371Z,680.63
2018-10-06T09:46:02.179Z,736.88
2018-10-06T09:47:02.118Z,714.38
2018-10-06T09:48:54.868Z,765.00
2018-10-06T09:49:54.815Z,703.13
2018-10-06T09:51:47.624Z,618.75
2018-10-06T09:52:47.546Z,669.38
2018-10-06T09:54:40.343Z,691.88
2018-10-06T09:55:40.277Z,675.00
2018-10-06T09:57:33.068Z,686.25
2018-10-06T09:58:32.997Z,669.38
2018-10-06T10:00:25.796Z,624.38
2018-10-06T10:01:25.734Z,556.88
2018-10-06T10:03:18.516Z,545.63
2018-10-06T10:04:18.447Z,506.25
2018-10-06T10:06:11.341Z,607.50
2018-10-06T10:07:11.196Z,523.13
2018-10-06T10:09:03.986Z,523.13
2018-10-06T10:10:04.092Z,534.38
2018-10-06T10:11:56.721Z,410.63
2018-10-06T10:12:56.649Z,416.25
2018-10-06T10:14:49.460Z,410.63
2018-10-06T10:15:49.395Z,416.25
2018-10-06T10:17:42.357Z,427.50
2018-10-06T10:18:42.119Z,455.63
2018-10-06T10:20:34.911Z,461.25
2018-10-06T10:21:34.849Z,461.25
2018-10-06T10:23:27.732Z,461.25
2018-10-06T10:24:27.575Z,455.63
2018-10-06T10:26:20.409Z,466.88
2018-10-06T10:27:20.345Z,466.88
2018-10-06T10:29:13.133Z,590.63
2018-10-06T10:30:13.075Z,669.38
2018-10-06T10:32:05.868Z,832.50
2018-10-06T10:33:05.807Z,990.00
2018-10-06T10:34:58.703Z,1158.75
2018-10-06T10:35:58.551Z,1293.75
2018-10-06T10:37:51.362Z,1203.75
2018-10-06T10:38:51.286Z,1321.88
2018-10-06T10:40:44.076Z,2036.25
2018-10-06T10:41:44.024Z,1743.75
2018-10-06T10:43:36.819Z,1141.88
2018-10-06T10:44:36.755Z,956.25
2018-10-06T10:46:29.565Z,725.63
2018-10-06T10:47:29.477Z,618.75
2018-10-06T10:49:22.272Z,495.00
2018-10-06T10:50:22.197Z,506.25
2018-10-06T10:52:14.999Z,365.63
2018-10-06T10:53:14.963Z,393.75
2018-10-06T10:55:07.710Z,371.25
2018-10-06T10:56:07.652Z,326.25
2018-10-06T10:58:00.453Z,326.25
2018-10-06T10:59:00.371Z,360.00
2018-10-06T11:00:53.151Z,360.00
2018-10-06T11:01:53.102Z,343.13
2018-10-06T11:03:45.933Z,292.50
2018-10-06T11:04:45.905Z,219.38
2018-10-06T11:06:38.761Z,196.88
2018-10-06T11:07:38.600Z,196.88
2018-10-06T11:09:31.390Z,191.25
2018-10-06T11:10:31.327Z,196.88
2018-10-06T11:12:24.122Z,191.25
2018-10-06T11:13:24.058Z,191.25
2018-10-06T11:15:16.907Z,191.25
2018-10-06T11:16:16.843Z,191.25
2018-10-06T11:18:09.699Z,185.63
2018-10-06T11:19:09.674Z,185.63
2018-10-06T11:21:02.401Z,174.38
2018-10-06T11:22:02.343Z,168.75
2018-10-06T11:23:55.120Z,163.13
2018-10-06T11:24:55.108Z,163.13
2018-10-06T11:26:47.847Z,180.00
2018-10-06T11:27:47.772Z,202.50
2018-10-06T11:29:40.587Z,208.13
2018-10-06T11:30:40.503Z,196.88
2018-10-06T11:32:33.304Z,208.13
2018-10-06T11:33:33.218Z,202.50
2018-10-06T11:35:26.003Z,208.13
2018-10-06T11:36:25.946Z,208.13
2018-10-06T11:38:18.892Z,196.88
2018-10-06T11:39:18.904Z,196.88
2018-10-06T11:41:11.544Z,191.25
2018-10-06T11:42:11.461Z,196.88
2018-10-06T11:44:04.304Z,185.63
2018-10-06T11:45:04.206Z,163.13
2018-10-06T11:46:57.091Z,163.13
2018-10-06T11:47:57.031Z,174.38
2018-10-06T11:49:49.879Z,191.25
2018-10-06T11:50:49.755Z,202.50
2018-10-06T11:52:42.561Z,202.50
2018-10-06T11:53:42.473Z,196.88
2018-10-06T11:55:35.264Z,196.88
2018-10-06T11:56:35.192Z,213.75
2018-10-06T11:58:28.038Z,213.75
2018-10-06T11:59:27.952Z,202.50
2018-10-06T12:01:20.786Z,191.25
2018-10-06T12:02:20.735Z,180.00
2018-10-06T12:04:13.653Z,185.63
2018-10-06T12:05:13.560Z,185.63
2018-10-06T12:07:06.386Z,174.38
2018-10-06T12:08:06.301Z,191.25
2018-10-06T12:09:59.118Z,196.88
2018-10-06T12:10:59.049Z,196.88
2018-10-06T12:12:51.828Z,202.50
2018-10-06T12:13:51.766Z,196.88
2018-10-06T12:15:44.535Z,196.88
2018-10-06T12:16:44.471Z,202.50
2018-10-06T12:18:37.281Z,202.50
2018-10-06T12:19:37.217Z,196.88
2018-10-06T12:21:30.022Z,202.50
2018-10-06T12:22:29.928Z,202.50
2018-10-06T12:24:22.725Z,196.88
2018-10-06T12:25:22.654Z,196.88
2018-10-06T12:27:15.498Z,196.88
2018-10-06T12:28:15.412Z,202.50
2018-10-06T12:30:08.215Z,202.50
2018-10-06T12:31:08.152Z,202.50
2018-10-06T12:33:00.934Z,213.75
2018-10-06T12:34:00.858Z,213.75
2018-10-06T12:35:53.664Z,213.75
2018-10-06T12:36:53.616Z,219.38
2018-10-06T12:38:46.444Z,225.00
2018-10-06T12:39:46.377Z,225.00
2018-10-06T12:41:39.175Z,225.00
2018-10-06T12:42:39.088Z,225.00
2018-10-06T12:44:31.901Z,219.38
2018-10-06T12:45:31.818Z,219.38
2018-10-06T12:47:24.624Z,219.38
2018-10-06T12:48:24.559Z,213.75
2018-10-06T12:50:17.441Z,202.50
2018-10-06T12:51:17.349Z,191.25
2018-10-06T12:53:10.127Z,185.63
2018-10-06T12:54:10.168Z,185.63
2018-10-06T12:56:02.843Z,191.25
2018-10-06T12:57:02.826Z,191.25
2018-10-06T12:58:55.575Z,180.00
2018-10-06T12:59:55.551Z,174.38
2018-10-06T13:01:48.344Z,163.13
2018-10-06T13:02:48.278Z,163.13
2018-10-06T13:04:41.087Z,163.13
2018-10-06T13:05:41.003Z,163.13
2018-10-06T13:07:33.910Z,157.50
2018-10-06T13:08:33.745Z,157.50
2018-10-06T13:10:26.615Z,157.50
2018-10-06T13:11:26.464Z,157.50
2018-10-06T13:13:19.269Z,151.88
2018-10-06T13:14:19.183Z,146.25
2018-10-06T13:16:11.998Z,151.88
2018-10-06T13:17:11.935Z,157.50
2018-10-06T13:19:04.738Z,157.50
2018-10-06T13:20:04.639Z,157.50
2018-10-06T13:21:57.417Z,157.50
2018-10-06T13:22:57.353Z,157.50
2018-10-06T13:24:50.234Z,157.50
2018-10-06T13:25:50.143Z,151.88
2018-10-06T13:27:42.963Z,157.50
2018-10-06T13:28:42.884Z,163.13
2018-10-06T13:30:35.692Z,157.50
2018-10-06T13:31:35.618Z,157.50
2018-10-06T13:33:28.436Z,157.50
2018-10-06T13:34:28.319Z,151.88
2018-10-06T13:36:21.221Z,157.50
2018-10-06T13:37:21.123Z,157.50
2018-10-06T13:39:14.188Z,151.88
2018-10-06T13:40:13.971Z,151.88
2018-10-06T13:42:07.128Z,151.88
2018-10-06T13:43:06.946Z,151.88
2018-10-06T13:45:00.124Z,151.88
2018-10-06T13:45:59.887Z,151.88
2018-10-06T13:47:52.884Z,151.88
2018-10-06T13:48:52.821Z,151.88
2018-10-06T13:50:45.631Z,140.63
2018-10-06T13:51:45.493Z,135.00
2018-10-06T13:53:38.562Z,135.00
2018-10-06T13:54:38.482Z,140.63
2018-10-06T13:56:31.339Z,140.63
2018-10-06T13:57:31.335Z,140.63
2018-10-06T13:59:24.480Z,140.63
2018-10-06T14:00:24.274Z,135.00
2018-10-06T14:02:17.415Z,129.38
2018-10-06T14:03:17.328Z,140.63
2018-10-06T14:05:10.177Z,140.63
2018-10-06T14:06:10.154Z,135.00
2018-10-06T14:08:03.008Z,101.25
2018-10-06T14:09:03.010Z,101.25
2018-10-06T14:10:56.365Z,90.00
2018-10-06T14:11:56.101Z,90.00
2018-10-06T14:13:49.233Z,90.00
2018-10-06T14:14:48.982Z,90.00
2018-10-06T14:16:42.284Z,84.38
2018-10-06T14:17:41.999Z,84.38
2018-10-06T14:19:35.139Z,84.38
2018-10-06T14:20:35.012Z,84.38
2018-10-06T14:22:27.872Z,84.38
2018-10-06T14:23:27.826Z,84.38
2018-10-06T14:25:20.734Z,90.00
2018-10-06T14:26:20.776Z,90.00
2018-10-06T14:28:13.752Z,90.00
2018-10-06T14:29:13.626Z,90.00
2018-10-06T14:31:06.916Z,90.00
2018-10-06T14:32:06.697Z,90.00
2018-10-06T14:33:59.592Z,90.00
2018-10-06T14:34:59.562Z,90.00
2018-10-06T14:36:52.596Z,90.00
2018-10-06T14:37:52.395Z,90.00
2018-10-06T14:39:45.682Z,90.00
2018-10-06T14:40:45.382Z,90.00
2018-10-06T14:42:38.223Z,95.63
2018-10-06T14:43:38.194Z,95.63
2018-10-06T14:45:31.429Z,90.00
2018-10-06T14:46:31.144Z,90.00
2018-10-06T14:48:24.428Z,90.00
2018-10-06T14:49:24.131Z,84.38
2018-10-06T14:51:17.156Z,84.38
2018-10-06T14:52:16.955Z,84.38
2018-10-06T14:54:09.825Z,84.38
2018-10-06T14:55:09.805Z,84.38
2018-10-06T14:57:02.790Z,78.75
2018-10-06T14:58:02.608Z,78.75
2018-10-06T14:59:55.746Z,73.13
2018-10-06T15:00:55.641Z,73.13
2018-10-06T15:02:48.576Z,67.50
2018-10-06T15:03:48.470Z,67.50
2018-10-06T15:05:41.214Z,67.50
2018-10-06T15:06:41.058Z,67.50
2018-10-06T15:08:34.063Z,61.88
2018-10-06T15:09:33.988Z,61.88
2018-10-06T15:11:27.089Z,61.88
2018-10-06T15:12:27.029Z,61.88
2018-10-06T15:14:20.045Z,61.88
2018-10-06T15:15:19.761Z,56.25
2018-10-06T15:17:12.805Z,56.25
2018-10-06T15:18:12.592Z,56.25
2018-10-06T15:20:05.852Z,56.25
2018-10-06T15:21:05.606Z,56.25
2018-10-06T15:22:58.774Z,50.63
2018-10-06T15:23:58.701Z,50.63
2018-10-06T15:25:52.113Z,50.63
2018-10-06T15:26:51.566Z,50.63
2018-10-06T15:28:44.679Z,45.00
2018-10-06T15:29:44.489Z,45.00
2018-10-06T15:31:37.325Z,45.00
2018-10-06T15:32:37.214Z,45.00
2018-10-06T15:34:30.011Z,39.38
2018-10-06T15:35:29.951Z,39.38
2018-10-06T15:37:22.721Z,39.38
2018-10-06T15:38:22.654Z,39.38
2018-10-06T15:40:15.497Z,33.75
2018-10-06T15:41:15.450Z,33.75
2018-10-06T15:43:08.165Z,33.75
2018-10-06T15:44:08.109Z,33.75
2018-10-06T15:46:00.984Z,28.13
2018-10-06T15:47:00.886Z,28.13
2018-10-06T15:48:53.643Z,28.13
2018-10-06T15:49:53.627Z,28.13
2018-10-06T15:51:46.424Z,28.13
2018-10-06T15:52:46.384Z,22.50
2018-10-06T15:54:39.145Z,22.50
2018-10-06T15:55:39.111Z,22.50
2018-10-06T15:57:31.923Z,22.50
2018-10-06T15:58:31.804Z,22.50
2018-10-06T16:00:24.605Z,16.88
2018-10-06T16:01:24.532Z,16.88
2018-10-06T16:03:17.316Z,16.88
2018-10-06T16:04:17.249Z,16.88
2018-10-06T16:06:10.144Z,11.25
2018-10-06T16:07:09.985Z,11.25
2018-10-06T16:09:02.838Z,11.25
2018-10-06T16:10:02.750Z,11.25
2018-10-06T16:11:55.632Z,5.63
2018-10-06T16:12:55.504Z,5.63
2018-10-06T16:14:48.357Z,5.63
2018-10-06T16:15:48.334Z,5.63
2018-10-06T16:17:41.399Z,5.63
2018-10-06T16:18:41.275Z,5.63
2018-10-06T16:20:34.091Z,5.63
2018-10-06T16:21:34.123Z,5.63
2018-10-06T16:23:26.806Z,0.00
2018-10-06T16:24:26.933Z,0.00
2018-10-06T16:26:19.777Z,0.00
2018-10-06T16:27:19.480Z,0.00
2018-10-06T16:29:12.417Z,0.00
2018-10-06T16:30:12.332Z,0.00
2018-10-06T16:32:05.105Z,0.00
2018-10-06T16:33:05.039Z,0.00
2018-10-06T16:34:57.826Z,0.00
2018-10-06T16:35:57.754Z,0.00
2018-10-06T16:37:50.541Z,0.00
2018-10-06T16:38:50.475Z,0.00
2018-10-06T16:40:43.419Z,0.00
2018-10-06T16:41:43.400Z,0.00
2018-10-06T16:43:36.102Z,0.00
2018-10-06T16:44:36.048Z,0.00
2018-10-06T16:46:28.936Z,0.00
2018-10-06T16:47:28.852Z,0.00
2018-10-06T16:49:21.678Z,0.00
2018-10-06T16:50:21.571Z,0.00
2018-10-06T16:52:14.410Z,0.00
2018-10-06T16:53:14.310Z,0.00
2018-10-06T16:55:07.107Z,0.00
2018-10-06T16:56:07.092Z,0.00
2018-10-06T16:57:59.877Z,0.00
2018-10-06T16:58:59.778Z,0.00
2018-10-06T17:00:52.576Z,0.00
2018-10-06T17:01:52.605Z,0.00
2018-10-06T17:03:45.330Z,0.00
2018-10-06T17:04:45.251Z,0.00
2018-10-06T17:06:38.062Z,0.00
2018-10-06T17:07:38.013Z,0.00
2018-10-06T17:09:30.776Z,0.00
2018-10-06T17:10:30.715Z,0.00
2018-10-06T17:12:23.738Z,0.00
2018-10-06T17:13:23.674Z,0.00
2018-10-06T17:15:16.440Z,0.00
2018-10-06T17:16:16.283Z,0.00
2018-10-06T17:18:09.086Z,0.00
2018-10-06T17:19:09.000Z,0.00
2018-10-06T17:21:01.922Z,0.00
2018-10-06T17:22:01.855Z,0.00
2018-10-06T17:23:54.682Z,0.00
2018-10-06T17:24:54.668Z,0.00
2018-10-06T17:26:47.561Z,0.00
2018-10-06T17:27:47.463Z,0.00
2018-10-06T17:29:40.256Z,0.00
2018-10-06T17:30:40.197Z,0.00
2018-10-06T17:32:33.156Z,0.00
2018-10-06T17:33:32.937Z,0.00
2018-10-06T17:35:25.743Z,0.00
2018-10-06T17:36:25.675Z,0.00
2018-10-06T17:38:18.560Z,0.00
2018-10-06T17:39:18.420Z,0.00
2018-10-06T17:41:11.202Z,0.00
2018-10-06T17:42:11.204Z,0.00
2018-10-06T17:44:03.951Z,0.00
2018-10-06T17:45:03.862Z,0.00
2018-10-06T17:46:56.658Z,0.00
2018-10-06T17:47:56.647Z,0.00
2018-10-06T17:49:49.461Z,0.00
2018-10-06T17:50:49.493Z,0.00
2018-10-06T17:52:42.105Z,0.00
2018-10-06T17:53:42.014Z,0.00
2018-10-06T17:55:34.824Z,0.00
2018-10-06T17:56:34.758Z,0.00
2018-10-06T17:58:27.576Z,0.00
2018-10-06T17:59:27.475Z,0.00
2018-10-06T18:01:20.286Z,0.00
2018-10-06T18:02:20.234Z,0.00
2018-10-06T18:04:13.076Z,0.00
2018-10-06T18:05:12.978Z,0.00
2018-10-06T18:07:05.860Z,0.00
2018-10-06T18:08:05.751Z,0.00
2018-10-06T18:09:58.517Z,0.00
2018-10-06T18:10:58.480Z,0.00
2018-10-06T18:12:51.357Z,0.00
2018-10-06T18:13:51.248Z,0.00
2018-10-06T18:15:44.080Z,0.00
2018-10-06T18:16:43.991Z,0.00
2018-10-06T18:18:36.764Z,0.00
2018-10-06T18:19:36.707Z,0.00
2018-10-06T18:21:29.695Z,0.00
2018-10-06T18:22:29.455Z,0.00
2018-10-06T18:24:22.254Z,0.00
2018-10-06T18:25:22.157Z,0.00
2018-10-06T18:27:15.062Z,0.00
2018-10-06T18:28:14.922Z,0.00
2018-10-06T18:30:07.846Z,0.00